Time;durP1;ratioP1;P1;durP2;ratioP2;P2;SDS_P1;SDS_P2;PMS_P1;PMS_P2;Temp;Humidity;BMP_temperature;BMP_pressure;BME280_temperature;BME280_humidity;BME280_pressure;Samples;Min_cycle;Max_cycle;Signal;HPM_P1;HPM_P2
2023/03/30 00:00:17;;;;;;;18.47;14.43;;;;;;;;;;5097819;28;20471;-71
2023/03/30 00:02:45;;;;;;;22.23;15.63;;;;;;;;;;5096726;28;20862;-71
2023/03/30 00:05:12;;;;;;;19.83;15.27;;;;;;;;;;5095938;28;20498;-71
2023/03/30 00:07:43;;;;;;;22.20;16.60;;;;;;;;;;5112873;28;20561;-71
2023/03/30 00:10:16;;;;;;;22.90;14.82;;;;;;;;;;5118386;28;20451;-71
2023/03/30 00:12:45;;;;;;;23.85;16.70;;;;;;;;;;5117547;28;20228;-71
2023/03/30 00:15:14;;;;;;;19.40;14.20;;;;;;;;;;5114020;28;20237;-71
2023/03/30 00:17:42;;;;;;;22.80;14.27;;;;;;;;;;5118260;28;20523;-71
2023/03/30 00:20:16;;;;;;;20.40;15.67;;;;;;;;;;5117807;28;20546;-72
2023/03/30 00:22:46;;;;;;;21.98;15.63;;;;;;;;;;5117852;28;20855;-71
2023/03/30 00:25:14;;;;;;;20.00;15.30;;;;;;;;;;5101784;28;20233;-72
2023/03/30 00:27:42;;;;;;;23.93;16.30;;;;;;;;;;5101912;28;20475;-71
2023/03/30 00:30:16;;;;;;;24.17;16.17;;;;;;;;;;5105670;28;20459;-71
2023/03/30 00:32:44;;;;;;;21.27;15.93;;;;;;;;;;5118819;28;20465;-71
2023/03/30 00:35:12;;;;;;;23.33;16.03;;;;;;;;;;5104690;28;20485;-71
2023/03/30 00:37:40;;;;;;;21.70;15.97;;;;;;;;;;5120929;28;20498;-71
2023/03/30 00:40:15;;;;;;;22.47;17.33;;;;;;;;;;5113333;28;20994;-71
2023/03/30 00:42:42;;;;;;;21.30;15.97;;;;;;;;;;5120073;28;20459;-71
2023/03/30 00:45:16;;;;;;;22.60;17.00;;;;;;;;;;5099972;28;20483;-72
2023/03/30 00:47:46;;;;;;;21.67;17.00;;;;;;;;;;5101694;28;20455;-71
2023/03/30 00:50:20;;;;;;;27.10;16.63;;;;;;;;;;5100856;28;20460;-72
2023/03/30 00:52:51;;;;;;;22.50;15.90;;;;;;;;;;5100777;28;20509;-70
2023/03/30 00:55:21;;;;;;;22.42;15.55;;;;;;;;;;5110870;28;20447;-73
2023/03/30 00:57:50;;;;;;;22.30;15.07;;;;;;;;;;5121663;28;20205;-71
2023/03/30 01:00:17;;;;;;;22.08;15.77;;;;;;;;;;5118829;28;20466;-71
2023/03/30 01:02:47;;;;;;;25.13;16.53;;;;;;;;;;5100120;28;20213;-71
2023/03/30 01:05:18;;;;;;;25.87;17.53;;;;;;;;;;5107687;28;20521;-71
2023/03/30 01:07:48;;;;;;;22.57;16.30;;;;;;;;;;5118656;28;21047;-71
2023/03/30 01:10:16;;;;;;;21.60;16.57;;;;;;;;;;5119653;28;21093;-71
2023/03/30 01:12:45;;;;;;;24.87;16.67;;;;;;;;;;5119579;28;20769;-71
2023/03/30 01:15:15;;;;;;;21.47;15.73;;;;;;;;;;5106078;28;20508;-71
2023/03/30 01:17:51;;;;;;;21.88;16.52;;;;;;;;;;5099161;28;20591;-71
2023/03/30 01:20:41;;;;;;;21.15;14.93;;;;;;;;;;5101386;28;20216;-71
2023/03/30 01:23:26;;;;;;;20.35;15.18;;;;;;;;;;5099311;28;20216;-71
2023/03/30 01:26:16;;;;;;;24.50;15.48;;;;;;;;;;5099005;28;20236;-71
2023/03/30 01:28:48;;;;;;;22.87;15.77;;;;;;;;;;5110647;28;20232;-71
2023/03/30 01:31:31;;;;;;;19.47;15.27;;;;;;;;;;5118790;28;20774;-71
2023/03/30 01:34:03;;;;;;;20.07;15.40;;;;;;;;;;5065016;28;20447;-71
2023/03/30 01:36:40;;;;;;;23.00;15.30;;;;;;;;;;5116610;28;20446;-71
2023/03/30 01:39:32;;;;;;;22.30;16.70;;;;;;;;;;5119763;28;20730;-71
2023/03/30 01:42:01;;;;;;;23.47;15.67;;;;;;;;;;5114167;28;20547;-71
2023/03/30 01:44:35;;;;;;;22.53;16.90;;;;;;;;;;5119133;28;20997;-71
2023/03/30 01:47:07;;;;;;;24.20;16.40;;;;;;;;;;5119082;28;20937;-72
2023/03/30 01:49:40;;;;;;;25.92;16.10;;;;;;;;;;5118868;28;20458;-73
2023/03/30 01:52:13;;;;;;;23.43;16.73;;;;;;;;;;5119231;28;20205;-70
2023/03/30 01:54:44;;;;;;;25.77;17.00;;;;;;;;;;5118310;28;20902;-71
2023/03/30 01:57:15;;;;;;;21.63;15.40;;;;;;;;;;5118613;28;20877;-71
2023/03/30 01:59:46;;;;;;;22.17;17.10;;;;;;;;;;5118907;28;20451;-71
2023/03/30 02:02:14;;;;;;;20.35;15.68;;;;;;;;;;5119791;28;20451;-71
2023/03/30 02:04:45;;;;;;;24.50;16.57;;;;;;;;;;5118515;28;20205;-71
2023/03/30 02:07:15;;;;;;;24.93;15.90;;;;;;;;;;5119058;28;20914;-71
2023/03/30 02:09:46;;;;;;;24.13;16.70;;;;;;;;;;5103538;28;20464;-72
2023/03/30 02:12:14;;;;;;;21.40;15.40;;;;;;;;;;5098955;28;20496;-71
2023/03/30 02:14:42;;;;;;;24.73;15.03;;;;;;;;;;5098461;28;20464;-71
2023/03/30 02:17:13;;;;;;;22.73;16.20;;;;;;;;;;5116331;28;20486;-71
2023/03/30 02:19:41;;;;;;;27.20;16.80;;;;;;;;;;5118528;28;20451;-71
2023/03/30 02:22:08;;;;;;;20.13;15.40;;;;;;;;;;5115404;28;20891;-71
2023/03/30 02:24:36;;;;;;;26.42;17.77;;;;;;;;;;5116364;28;20465;-71
2023/03/30 02:27:05;;;;;;;27.13;16.50;;;;;;;;;;5116146;28;20250;-73
2023/03/30 02:29:34;;;;;;;22.43;16.17;;;;;;;;;;5117242;28;20439;-72
2023/03/30 02:32:02;;;;;;;31.87;16.77;;;;;;;;;;5119025;28;20827;-71
2023/03/30 02:34:42;;;;;;;22.60;16.73;;;;;;;;;;5118286;28;20462;-72
2023/03/30 02:37:21;;;;;;;24.08;16.10;;;;;;;;;;5101706;28;20867;-72
2023/03/30 02:39:54;;;;;;;23.40;16.45;;;;;;;;;;5097304;28;20259;-72
2023/03/30 02:42:37;;;;;;;20.87;15.23;;;;;;;;;;5098985;28;20209;-71
2023/03/30 02:45:15;;;;;;;22.23;16.40;;;;;;;;;;5098217;28;20444;-70
2023/03/30 02:47:47;;;;;;;23.33;16.70;;;;;;;;;;5098848;28;20527;-71
2023/03/30 02:50:18;;;;;;;22.55;14.75;;;;;;;;;;5109462;28;20543;-71
2023/03/30 02:52:49;;;;;;;22.90;16.00;;;;;;;;;;5118907;28;20216;-71
2023/03/30 02:55:21;;;;;;;21.40;15.53;;;;;;;;;;5119241;28;20553;-71
2023/03/30 02:57:55;;;;;;;21.17;16.30;;;;;;;;;;5119202;28;20451;-71
2023/03/30 03:00:26;;;;;;;19.93;15.37;;;;;;;;;;5118958;28;20326;-71
2023/03/30 03:02:56;;;;;;;23.10;15.60;;;;;;;;;;5114909;28;20516;-72
2023/03/30 03:05:24;;;;;;;20.67;15.00;;;;;;;;;;5117824;28;20467;-72
2023/03/30 03:07:52;;;;;;;22.42;15.73;;;;;;;;;;5108007;28;20704;-71
2023/03/30 03:10:22;;;;;;;20.87;15.00;;;;;;;;;;5097779;28;20641;-71
2023/03/30 03:12:50;;;;;;;16.98;13.45;;;;;;;;;;5103607;28;20454;-71
2023/03/30 03:15:19;;;;;;;20.80;15.10;;;;;;;;;;5117242;28;20601;-71
2023/03/30 03:17:46;;;;;;;21.67;14.30;;;;;;;;;;5116847;28;20451;-71
2023/03/30 03:20:13;;;;;;;21.83;14.63;;;;;;;;;;5118667;28;20455;-71
2023/03/30 03:22:40;;;;;;;18.50;13.90;;;;;;;;;;5118222;28;20866;-71
2023/03/30 03:25:09;;;;;;;18.83;13.67;;;;;;;;;;5117896;28;20291;-71
2023/03/30 03:27:36;;;;;;;23.50;14.63;;;;;;;;;;5110310;28;20488;-71
2023/03/30 03:30:14;;;;;;;21.53;13.20;;;;;;;;;;5097265;28;20482;-71
2023/03/30 03:32:43;;;;;;;17.67;12.83;;;;;;;;;;5098588;28;20720;-71
2023/03/30 03:35:10;;;;;;;21.63;14.37;;;;;;;;;;5097991;28;20559;-71
2023/03/30 03:37:37;;;;;;;19.67;13.73;;;;;;;;;;5094556;28;20447;-71
2023/03/30 03:40:12;;;;;;;16.50;12.30;;;;;;;;;;5110278;28;20477;-71
2023/03/30 03:42:40;;;;;;;20.33;15.17;;;;;;;;;;5115708;28;20435;-71
2023/03/30 03:45:08;;;;;;;21.48;14.82;;;;;;;;;;5114284;28;20862;-71
2023/03/30 03:47:36;;;;;;;22.50;13.87;;;;;;;;;;5096876;28;20226;-71
2023/03/30 03:50:12;;;;;;;19.93;12.70;;;;;;;;;;5096596;28;20491;-72
2023/03/30 03:52:39;;;;;;;19.70;14.50;;;;;;;;;;5095918;28;20459;-71
2023/03/30 03:55:07;;;;;;;18.00;13.17;;;;;;;;;;5096282;28;20448;-71
2023/03/30 03:57:35;;;;;;;18.03;13.27;;;;;;;;;;5112030;28;20459;-71
2023/03/30 04:00:18;;;;;;;20.70;14.97;;;;;;;;;;5111283;28;20559;-72
2023/03/30 04:02:45;;;;;;;15.03;11.77;;;;;;;;;;5100262;28;20501;-71
2023/03/30 04:05:14;;;;;;;17.83;13.23;;;;;;;;;;5099267;28;20951;-71
2023/03/30 04:10:27;;;;;;;20.20;13.53;;;;;;;;;;5097500;28;20549;-71
2023/03/30 04:12:55;;;;;;;17.47;12.70;;;;;;;;;;5109589;28;20520;-71
2023/03/30 04:15:23;;;;;;;19.33;14.53;;;;;;;;;;5118742;28;20455;-71
2023/03/30 04:17:56;;;;;;;20.07;13.10;;;;;;;;;;5117470;28;20442;-71
2023/03/30 04:20:26;;;;;;;17.98;13.48;;;;;;;;;;5116793;28;20465;-71
2023/03/30 04:22:53;;;;;;;17.33;13.13;;;;;;;;;;5115099;28;20208;-71
2023/03/30 04:25:24;;;;;;;20.43;13.87;;;;;;;;;;5108975;28;20439;-71
2023/03/30 04:27:54;;;;;;;20.27;13.80;;;;;;;;;;5113418;28;20568;-72
2023/03/30 04:30:29;;;;;;;17.77;12.90;;;;;;;;;;5119021;28;20497;-71
2023/03/30 04:33:03;;;;;;;18.57;13.90;;;;;;;;;;5119948;28;20461;-72
2023/03/30 04:35:34;;;;;;;19.43;14.53;;;;;;;;;;5119533;28;20454;-71
2023/03/30 04:38:02;;;;;;;16.63;12.90;;;;;;;;;;5119522;28;20450;-72
2023/03/30 04:40:30;;;;;;;20.07;14.10;;;;;;;;;;5120271;28;20430;-71
2023/03/30 04:43:01;;;;;;;18.90;12.83;;;;;;;;;;5119951;28;20461;-71
2023/03/30 04:45:29;;;;;;;16.30;13.88;;;;;;;;;;5119723;28;20896;-70
2023/03/30 04:47:56;;;;;;;16.93;12.50;;;;;;;;;;5117141;28;20221;-71
2023/03/30 04:50:29;;;;;;;19.73;14.23;;;;;;;;;;5117920;28;20469;-71
2023/03/30 04:53:00;;;;;;;21.00;15.10;;;;;;;;;;5105158;28;20811;-72
2023/03/30 04:55:27;;;;;;;20.27;14.23;;;;;;;;;;5115712;28;20454;-71
2023/03/30 04:57:56;;;;;;;20.93;16.03;;;;;;;;;;5114213;28;20452;-71
2023/03/30 05:00:23;;;;;;;25.70;14.63;;;;;;;;;;5098728;28;20463;-71
2023/03/30 05:02:51;;;;;;;19.38;12.68;;;;;;;;;;5097917;28;20678;-71
2023/03/30 05:05:18;;;;;;;19.83;13.70;;;;;;;;;;5097671;28;20292;-72
2023/03/30 05:07:48;;;;;;;14.70;12.60;;;;;;;;;;5097316;28;20483;-71
2023/03/30 05:10:33;;;;;;;17.40;12.20;;;;;;;;;;5099697;28;20546;-72
2023/03/30 05:13:17;;;;;;;16.83;12.67;;;;;;;;;;5096586;28;20443;-72
2023/03/30 05:15:45;;;;;;;16.05;13.30;;;;;;;;;;5074583;28;20445;-72
2023/03/30 05:18:15;;;;;;;16.83;13.20;;;;;;;;;;5080038;28;20218;-71
2023/03/30 05:20:44;;;;;;;19.13;13.30;;;;;;;;;;5074356;28;20573;-71
2023/03/30 05:23:17;;;;;;;19.02;13.40;;;;;;;;;;5073507;28;20447;-72
2023/03/30 05:25:47;;;;;;;18.98;12.68;;;;;;;;;;5078773;28;20191;-71
2023/03/30 05:28:16;;;;;;;18.87;14.10;;;;;;;;;;5079474;28;20282;-71
2023/03/30 05:30:43;;;;;;;14.30;11.93;;;;;;;;;;5079714;28;20457;-71
2023/03/30 05:33:11;;;;;;;13.73;11.13;;;;;;;;;;5072907;28;20879;-72
2023/03/30 05:35:39;;;;;;;17.47;11.90;;;;;;;;;;5083522;28;20495;-71
2023/03/30 05:38:07;;;;;;;16.97;12.20;;;;;;;;;;5072799;28;20448;-71
2023/03/30 05:40:38;;;;;;;17.90;11.40;;;;;;;;;;5087774;28;20480;-71
2023/03/30 05:43:06;;;;;;;15.80;11.70;;;;;;;;;;5090136;28;20534;-71
2023/03/30 05:45:34;;;;;;;15.80;11.20;;;;;;;;;;5085266;28;20558;-71
2023/03/30 05:48:05;;;;;;;14.60;11.80;;;;;;;;;;5074672;28;20561;-71
2023/03/30 05:50:34;;;;;;;13.80;10.13;;;;;;;;;;5086671;28;20455;-71
2023/03/30 05:53:33;;;;;;;15.40;9.97;;;;;;;;;;5094029;28;20448;-71
2023/03/30 05:56:11;;;;;;;10.97;8.63;;;;;;;;;;5092403;28;20471;-71
2023/03/30 05:58:48;;;;;;;14.57;9.43;;;;;;;;;;5093897;28;20447;-72
2023/03/30 06:01:20;;;;;;;13.07;7.93;;;;;;;;;;5091643;28;20444;-71
2023/03/30 06:03:49;;;;;;;12.20;9.57;;;;;;;;;;5088024;28;20194;-71
2023/03/30 06:06:17;;;;;;;9.70;7.87;;;;;;;;;;5078732;28;20514;-72
2023/03/30 06:08:45;;;;;;;12.40;8.33;;;;;;;;;;5077992;28;21068;-71
2023/03/30 06:11:17;;;;;;;9.13;7.90;;;;;;;;;;5094418;28;21044;-72
2023/03/30 06:13:49;;;;;;;10.00;7.33;;;;;;;;;;5087425;28;20456;-71
2023/03/30 06:16:17;;;;;;;13.33;7.60;;;;;;;;;;5090967;28;20999;-72
2023/03/30 06:18:47;;;;;;;12.17;8.70;;;;;;;;;;5088153;28;20444;-71
2023/03/30 06:21:14;;;;;;;12.70;7.77;;;;;;;;;;5093664;28;20486;-72
2023/03/30 06:23:42;;;;;;;11.00;7.07;;;;;;;;;;5074993;28;20492;-72
2023/03/30 06:26:12;;;;;;;11.43;7.30;;;;;;;;;;5070935;28;20459;-71
2023/03/30 06:28:41;;;;;;;10.93;7.85;;;;;;;;;;5071238;28;20599;-72
2023/03/30 06:31:13;;;;;;;13.00;8.03;;;;;;;;;;5092091;28;20829;-72
2023/03/30 06:33:41;;;;;;;10.77;7.33;;;;;;;;;;5091287;28;20451;-72
2023/03/30 06:36:10;;;;;;;11.20;8.67;;;;;;;;;;5092520;28;20451;-71
2023/03/30 06:38:42;;;;;;;10.50;6.90;;;;;;;;;;5091430;28;20495;-72
2023/03/30 06:41:11;;;;;;;10.63;7.70;;;;;;;;;;5092528;28;20455;-71
2023/03/30 06:43:39;;;;;;;11.57;6.50;;;;;;;;;;5092711;28;20544;-71
2023/03/30 06:46:14;;;;;;;12.60;7.07;;;;;;;;;;5084063;28;20206;-72
2023/03/30 06:48:46;;;;;;;7.50;6.70;;;;;;;;;;5083611;28;20919;-72
2023/03/30 06:51:25;;;;;;;8.40;6.40;;;;;;;;;;5079024;28;20468;-72
2023/03/30 06:53:53;;;;;;;10.10;5.80;;;;;;;;;;5071683;28;20472;-72
2023/03/30 06:56:21;;;;;;;7.93;5.40;;;;;;;;;;5071235;28;20461;-72
2023/03/30 06:58:55;;;;;;;10.50;5.77;;;;;;;;;;5074579;28;20547;-72
2023/03/30 07:01:30;;;;;;;12.17;6.20;;;;;;;;;;5088607;28;20455;-71
2023/03/30 07:04:04;;;;;;;7.30;5.23;;;;;;;;;;5083258;28;20482;-71
2023/03/30 07:06:32;;;;;;;9.60;5.13;;;;;;;;;;5079161;28;20892;-71
2023/03/30 07:09:11;;;;;;;11.97;6.57;;;;;;;;;;5069925;28;20457;-71
2023/03/30 07:11:41;;;;;;;10.80;4.40;;;;;;;;;;5073567;28;20451;-71
2023/03/30 07:14:11;;;;;;;8.63;4.83;;;;;;;;;;5073099;28;20452;-71
2023/03/30 07:16:39;;;;;;;10.53;4.40;;;;;;;;;;5071822;28;20459;-71
2023/03/30 07:19:08;;;;;;;6.97;4.70;;;;;;;;;;5070638;28;20454;-71
2023/03/30 07:21:35;;;;;;;8.20;4.00;;;;;;;;;;5070649;28;20476;-72
2023/03/30 07:24:07;;;;;;;6.10;3.93;;;;;;;;;;5070033;28;21155;-71
2023/03/30 07:26:46;;;;;;;5.80;4.03;;;;;;;;;;5071164;28;20464;-71
2023/03/30 07:29:14;;;;;;;5.97;3.40;;;;;;;;;;5089634;28;20458;-71
2023/03/30 07:31:48;;;;;;;5.75;3.85;;;;;;;;;;5088561;28;20459;-71
2023/03/30 07:34:18;;;;;;;6.93;3.70;;;;;;;;;;5088784;28;20428;-71
2023/03/30 07:36:51;;;;;;;5.37;3.30;;;;;;;;;;5086260;28;20538;-71
2023/03/30 07:39:19;;;;;;;5.40;3.47;;;;;;;;;;5072480;28;20484;-71
2023/03/30 07:41:47;;;;;;;6.47;3.77;;;;;;;;;;5086561;28;20534;-71
2023/03/30 07:44:14;;;;;;;7.00;3.37;;;;;;;;;;5090208;28;20517;-71
2023/03/30 07:46:42;;;;;;;5.93;3.43;;;;;;;;;;5089351;28;20451;-71
2023/03/30 07:49:12;;;;;;;6.73;3.30;;;;;;;;;;5088954;28;20443;-71
2023/03/30 07:51:44;;;;;;;7.87;4.30;;;;;;;;;;5068265;28;20448;-71
2023/03/30 07:54:11;;;;;;;9.30;4.13;;;;;;;;;;5060414;28;20465;-71
2023/03/30 07:56:41;;;;;;;5.20;3.40;;;;;;;;;;5047660;28;20457;-71
2023/03/30 07:59:11;;;;;;;5.90;3.37;;;;;;;;;;5047118;28;20484;-71
2023/03/30 08:01:39;;;;;;;5.93;3.87;;;;;;;;;;5056318;28;20822;-71
2023/03/30 08:04:12;;;;;;;8.37;3.80;;;;;;;;;;5068225;28;20463;-72
2023/03/30 08:06:53;;;;;;;;;;;;;;;;;;;;;
2023/03/30 08:09:27;;;;;;;5.43;3.73;;;;;;;;;;5069176;28;20937;-71
2023/03/30 08:12:00;;;;;;;10.90;3.97;;;;;;;;;;5069186;28;20433;-72
2023/03/30 08:14:28;;;;;;;7.90;3.60;;;;;;;;;;5104006;28;20470;-72
2023/03/30 08:16:59;;;;;;;10.07;4.47;;;;;;;;;;5107987;28;20527;-73
2023/03/30 08:19:28;;;;;;;5.80;3.20;;;;;;;;;;5088989;28;20458;-72
2023/03/30 08:22:08;;;;;;;10.20;4.63;;;;;;;;;;5108330;28;20535;-73
2023/03/30 08:25:33;;;;;;;10.57;4.07;;;;;;;;;;5108367;28;20450;-72
2023/03/30 08:31:20;;;;;;;7.03;3.30;;;;;;;;;;5109086;28;20451;-73
2023/03/30 08:33:48;;;;;;;5.33;2.70;;;;;;;;;;5106419;28;20659;-72
2023/03/30 08:36:15;;;;;;;10.33;4.53;;;;;;;;;;5104388;28;20495;-71
2023/03/30 08:38:45;;;;;;;7.00;3.60;;;;;;;;;;5106319;28;20700;-71
2023/03/30 08:41:34;;;;;;;5.67;3.13;;;;;;;;;;5106645;28;20545;-73
2023/03/30 08:44:07;;;;;;;7.07;3.63;;;;;;;;;;5112666;28;20528;-72
2023/03/30 08:46:43;;;;;;;6.80;4.33;;;;;;;;;;5111225;28;20469;-72
2023/03/30 08:49:21;;;;;;;5.97;3.83;;;;;;;;;;5111311;28;20881;-72
2023/03/30 08:51:53;;;;;;;8.13;4.47;;;;;;;;;;5110922;28;20425;-72
2023/03/30 08:54:25;;;;;;;6.55;4.30;;;;;;;;;;5111676;28;20497;-72
2023/03/30 08:56:58;;;;;;;9.97;4.40;;;;;;;;;;5111587;28;20364;-72
2023/03/30 08:59:30;;;;;;;9.73;4.80;;;;;;;;;;5108518;28;20747;-71
2023/03/30 09:02:03;;;;;;;9.13;4.70;;;;;;;;;;5109561;28;20819;-71
2023/03/30 09:04:43;;;;;;;8.87;4.10;;;;;;;;;;5106015;28;20822;-72
2023/03/30 09:07:16;;;;;;;9.30;4.00;;;;;;;;;;5091810;28;20466;-72
2023/03/30 09:09:54;;;;;;;6.40;3.83;;;;;;;;;;5100317;28;20465;-71
2023/03/30 09:12:40;;;;;;;;;;;;;;;;;;;;;
2023/03/30 09:15:20;;;;;;;4.43;2.88;;;;;;;;;;5107649;28;20439;-71
2023/03/30 09:17:50;;;;;;;8.00;3.17;;;;;;;;;;5110945;28;20584;-72
2023/03/30 09:23:04;;;;;;;7.47;3.83;;;;;;;;;;5095654;28;20300;-71
2023/03/30 09:25:35;;;;;;;6.03;3.30;;;;;;;;;;5108318;28;20459;-71
2023/03/30 09:28:08;;;;;;;7.90;3.85;;;;;;;;;;5089677;28;20926;-71
2023/03/30 09:30:45;;;;;;;6.43;3.27;;;;;;;;;;5109888;28;20739;-71
2023/03/30 09:33:22;;;;;;;9.40;3.23;;;;;;;;;;5109417;28;20552;-72
2023/03/30 09:35:58;;;;;;;5.97;2.87;;;;;;;;;;5111084;28;20453;-71
2023/03/30 09:38:28;;;;;;;6.40;2.33;;;;;;;;;;5110278;28;20488;-71
2023/03/30 09:41:11;;;;;;;5.13;2.30;;;;;;;;;;5113299;28;20524;-71
2023/03/30 09:43:52;;;;;;;4.33;2.13;;;;;;;;;;5114826;28;20463;-72
2023/03/30 09:46:29;;;;;;;6.90;2.70;;;;;;;;;;5109464;28;21007;-71
2023/03/30 09:49:13;;;;;;;2.90;1.73;;;;;;;;;;5111890;28;20890;-71
2023/03/30 09:51:53;;;;;;;5.03;2.57;;;;;;;;;;5098300;28;20542;-71
2023/03/30 09:54:22;;;;;;;3.63;2.90;;;;;;;;;;5097655;28;20545;-71
2023/03/30 09:57:03;;;;;;;4.30;2.17;;;;;;;;;;5112938;28;20481;-72
2023/03/30 09:59:54;;;;;;;5.37;2.10;;;;;;;;;;5109925;28;20900;-72
2023/03/30 10:05:21;;;;;;;3.60;2.27;;;;;;;;;;5104807;27;20472;-71
2023/03/30 10:07:55;;;;;;;4.55;2.35;;;;;;;;;;5128113;27;20773;-71
2023/03/30 10:10:31;;;;;;;10.17;2.27;;;;;;;;;;5128776;27;20207;-71
2023/03/30 10:16:04;;;;;;;4.47;1.77;;;;;;;;;;5111211;27;20461;-72
2023/03/30 10:18:37;;;;;;;7.30;2.70;;;;;;;;;;5111463;27;20960;-71
2023/03/30 10:21:21;;;;;;;6.20;1.90;;;;;;;;;;5112133;28;20503;-72
2023/03/30 10:24:02;;;;;;;3.73;1.93;;;;;;;;;;5117087;27;20990;-72
2023/03/30 10:26:34;;;;;;;5.57;2.03;;;;;;;;;;5124595;27;21000;-70
2023/03/30 10:29:09;;;;;;;5.65;2.30;;;;;;;;;;5127084;27;20485;-72
2023/03/30 10:31:38;;;;;;;3.73;1.77;;;;;;;;;;5131270;27;20264;-71
2023/03/30 10:34:08;;;;;;;5.43;2.10;;;;;;;;;;5129585;27;20744;-71
2023/03/30 10:36:48;;;;;;;4.20;2.57;;;;;;;;;;5114318;28;20485;-71
2023/03/30 10:39:19;;;;;;;4.17;1.57;;;;;;;;;;5111006;28;20451;-71
2023/03/30 10:41:48;;;;;;;3.53;1.67;;;;;;;;;;5111421;28;20478;-71
2023/03/30 10:44:20;;;;;;;2.87;1.60;;;;;;;;;;5112181;28;20545;-71
2023/03/30 10:47:04;;;;;;;6.33;1.93;;;;;;;;;;5119736;27;20912;-71
2023/03/30 10:50:02;;;;;;;5.97;2.03;;;;;;;;;;5131161;27;20509;-71
2023/03/30 10:52:49;;;;;;;3.97;1.40;;;;;;;;;;5126040;27;20457;-71
2023/03/30 10:55:18;;;;;;;6.13;2.33;;;;;;;;;;5111534;27;20462;-71
2023/03/30 10:57:53;;;;;;;5.97;2.23;;;;;;;;;;5131536;27;20458;-70
2023/03/30 11:00:39;;;;;;;4.10;2.13;;;;;;;;;;5127799;27;20527;-69
2023/03/30 11:03:09;;;;;;;4.20;1.80;;;;;;;;;;5110653;28;20509;-70
2023/03/30 11:05:44;;;;;;;3.80;1.60;;;;;;;;;;5111565;27;20461;-70
2023/03/30 11:08:32;;;;;;;4.20;1.40;;;;;;;;;;5113765;27;20585;-70
2023/03/30 11:11:09;;;;;;;2.80;1.87;;;;;;;;;;5111995;28;20443;-71
2023/03/30 11:13:40;;;;;;;4.03;1.80;;;;;;;;;;5111343;28;20454;-71
2023/03/30 11:16:12;;;;;;;3.87;2.00;;;;;;;;;;5128237;27;20457;-70
2023/03/30 11:18:43;;;;;;;6.90;3.07;;;;;;;;;;5128823;27;20457;-71
2023/03/30 11:21:14;;;;;;;5.70;1.60;;;;;;;;;;5126308;27;20449;-71
2023/03/30 11:23:46;;;;;;;4.90;1.67;;;;;;;;;;5128117;27;20203;-70
2023/03/30 11:26:29;;;;;;;4.03;1.97;;;;;;;;;;5121413;27;20462;-71
2023/03/30 11:29:06;;;;;;;3.75;1.63;;;;;;;;;;5129831;27;20624;-71
2023/03/30 11:31:47;;;;;;;3.20;1.30;;;;;;;;;;5120258;27;20209;-71
2023/03/30 11:34:20;;;;;;;4.90;1.50;;;;;;;;;;5107749;28;20895;-70
2023/03/30 11:36:53;;;;;;;3.13;1.20;;;;;;;;;;5113809;28;21119;-71
2023/03/30 11:39:24;;;;;;;6.20;1.30;;;;;;;;;;5130031;28;20745;-71
2023/03/30 11:41:53;;;;;;;7.40;1.60;;;;;;;;;;5126831;28;20451;-71
2023/03/30 11:44:21;;;;;;;3.50;1.30;;;;;;;;;;5110196;28;20450;-71
2023/03/30 11:46:52;;;;;;;8.20;2.07;;;;;;;;;;5119004;28;20204;-71
2023/03/30 11:49:32;;;;;;;3.43;1.30;;;;;;;;;;5129421;28;20482;-71
2023/03/30 11:52:10;;;;;;;4.10;1.53;;;;;;;;;;5113963;28;20534;-71
2023/03/30 11:54:55;;;;;;;4.27;1.10;;;;;;;;;;5127660;28;20465;-71
2023/03/30 11:57:26;;;;;;;4.63;1.30;;;;;;;;;;5125857;28;20442;-70
2023/03/30 12:00:06;;;;;;;3.50;1.10;;;;;;;;;;5126695;28;20958;-70
2023/03/30 12:02:37;;;;;;;4.93;1.20;;;;;;;;;;5124085;28;20541;-71
2023/03/30 12:05:08;;;;;;;7.43;1.80;;;;;;;;;;5125822;28;20465;-72
2023/03/30 12:07:43;;;;;;;3.30;1.10;;;;;;;;;;5111183;28;20454;-72
2023/03/30 12:13:16;;;;;;;7.50;2.23;;;;;;;;;;5128759;27;20624;-72
2023/03/30 12:15:52;;;;;;;7.10;1.80;;;;;;;;;;5102168;28;20554;-72
2023/03/30 12:18:29;;;;;;;2.23;1.00;;;;;;;;;;5107572;28;20458;-72
2023/03/30 12:21:05;;;;;;;4.00;1.27;;;;;;;;;;5108860;28;20504;-72
2023/03/30 12:23:39;;;;;;;6.17;2.07;;;;;;;;;;5105863;28;20446;-74
2023/03/30 12:26:27;;;;;;;5.53;1.60;;;;;;;;;;5104584;28;20625;-71
2023/03/30 12:29:00;;;;;;;5.70;2.13;;;;;;;;;;5095259;28;21201;-72
2023/03/30 12:31:55;;;;;;;3.90;1.50;;;;;;;;;;5102397;28;20574;-71
2023/03/30 12:34:28;;;;;;;3.50;1.70;;;;;;;;;;5080607;28;20521;-74
2023/03/30 12:37:08;;;;;;;2.83;1.00;;;;;;;;;;5087598;28;20926;-73
2023/03/30 12:39:47;;;;;;;3.23;1.00;;;;;;;;;;5082618;28;20564;-72
2023/03/30 12:42:25;;;;;;;4.17;1.30;;;;;;;;;;5085307;28;20487;-71
2023/03/30 12:45:10;;;;;;;8.47;1.50;;;;;;;;;;5092475;28;20455;-71
2023/03/30 12:50:47;;;;;;;5.07;1.60;;;;;;;;;;5101082;28;20469;-72
2023/03/30 12:53:24;;;;;;;10.50;1.40;;;;;;;;;;5104759;28;20448;-71
2023/03/30 12:56:02;;;;;;;2.80;1.10;;;;;;;;;;5103548;28;20452;-71
2023/03/30 12:58:45;;;;;;;4.80;1.80;;;;;;;;;;5099101;28;20440;-71
2023/03/30 13:01:20;;;;;;;4.27;1.80;;;;;;;;;;5106485;28;20450;-72
2023/03/30 13:03:53;;;;;;;3.60;2.30;;;;;;;;;;5102539;28;20447;-71
2023/03/30 13:06:42;;;;;;;4.13;2.67;;;;;;;;;;5105318;28;20459;-72
2023/03/30 13:09:29;;;;;;;5.30;1.30;;;;;;;;;;5105185;28;20482;-71
2023/03/30 13:12:25;;;;;;;5.50;2.17;;;;;;;;;;5089214;27;20554;-72
2023/03/30 13:15:22;;;;;;;;;;;;;;;;;;;;;
2023/03/30 13:18:07;;;;;;;4.90;1.70;;;;;;;;;;5082213;28;20935;-71
2023/03/30 13:21:02;;;;;;;5.90;2.10;;;;;;;;;;5058061;28;20456;-71
2023/03/30 13:23:44;;;;;;;8.97;2.70;;;;;;;;;;5055447;28;20458;-71
2023/03/30 13:26:24;;;;;;;6.83;1.90;;;;;;;;;;5048865;28;20450;-71
2023/03/30 13:29:21;;;;;;;;;;;;;;;;;;;;;
2023/03/30 13:32:08;;;;;;;6.00;1.70;;;;;;;;;;5042510;28;20484;-71
2023/03/30 13:34:55;;;;;;;5.50;2.53;;;;;;;;;;5048241;28;20487;-72
2023/03/30 13:37:38;;;;;;;5.17;1.97;;;;;;;;;;5050278;28;20441;-71
2023/03/30 13:40:26;;;;;;;7.90;1.87;;;;;;;;;;5036050;28;21201;-70
2023/03/30 13:43:01;;;;;;;5.77;2.03;;;;;;;;;;5051946;28;20456;-71
2023/03/30 13:45:34;;;;;;;12.40;3.07;;;;;;;;;;5051903;28;20446;-69
2023/03/30 13:48:10;;;;;;;3.93;1.57;;;;;;;;;;5051527;28;20466;-69
2023/03/30 13:50:39;;;;;;;7.27;1.80;;;;;;;;;;5048975;28;20970;-70
2023/03/30 13:53:15;;;;;;;6.07;1.73;;;;;;;;;;5046263;28;20496;-70
2023/03/30 13:55:49;;;;;;;7.00;1.73;;;;;;;;;;5049696;28;20465;-70
2023/03/30 13:58:22;;;;;;;9.23;2.00;;;;;;;;;;5049147;28;21032;-71
2023/03/30 14:01:19;;;;;;;7.80;1.67;;;;;;;;;;5034080;28;20484;-71
2023/03/30 14:03:49;;;;;;;9.60;3.53;;;;;;;;;;5046780;28;20515;-70
2023/03/30 14:06:22;;;;;;;8.70;3.20;;;;;;;;;;5041231;28;20554;-70
2023/03/30 14:08:52;;;;;;;9.23;2.70;;;;;;;;;;5045651;28;21077;-70
2023/03/30 14:11:23;;;;;;;10.67;2.57;;;;;;;;;;5043127;28;20461;-71
2023/03/30 14:13:57;;;;;;;5.13;1.70;;;;;;;;;;5047485;28;20464;-70
2023/03/30 14:16:31;;;;;;;9.70;1.80;;;;;;;;;;5050548;28;20445;-69
2023/03/30 14:19:15;;;;;;;5.77;1.77;;;;;;;;;;5048557;28;20486;-70
2023/03/30 14:21:51;;;;;;;8.57;1.70;;;;;;;;;;5030544;28;20477;-71
2023/03/30 14:24:36;;;;;;;10.80;1.80;;;;;;;;;;5044629;28;20461;-71
2023/03/30 14:27:07;;;;;;;14.30;4.33;;;;;;;;;;5068221;28;20472;-72
2023/03/30 14:29:45;;;;;;;9.87;2.40;;;;;;;;;;5043718;28;20793;-71
2023/03/30 14:32:21;;;;;;;7.40;3.30;;;;;;;;;;5046049;28;20767;-70
2023/03/30 14:35:09;;;;;;;8.73;1.77;;;;;;;;;;5028303;28;20579;-71
2023/03/30 14:37:48;;;;;;;6.63;2.10;;;;;;;;;;5028333;28;20482;-71
2023/03/30 14:40:16;;;;;;;11.50;2.10;;;;;;;;;;5029822;28;20793;-70
2023/03/30 14:42:45;;;;;;;5.60;1.70;;;;;;;;;;5029229;28;20893;-70
2023/03/30 14:45:23;;;;;;;9.30;3.40;;;;;;;;;;5048061;28;20976;-69
2023/03/30 14:47:55;;;;;;;9.53;2.20;;;;;;;;;;5104583;28;20458;-71
2023/03/30 14:50:29;;;;;;;12.83;7.60;;;;;;;;;;5111759;28;20593;-71
2023/03/30 14:53:02;;;;;;;8.17;1.90;;;;;;;;;;5107527;28;21126;-70
2023/03/30 14:55:40;;;;;;;8.20;1.87;;;;;;;;;;5112289;28;20553;-71
2023/03/30 14:58:15;;;;;;;7.90;1.50;;;;;;;;;;5110753;28;20483;-71
2023/03/30 15:00:51;;;;;;;12.13;3.20;;;;;;;;;;5110386;28;20458;-70
2023/03/30 15:03:27;;;;;;;5.40;1.77;;;;;;;;;;5108688;28;20850;-71
2023/03/30 15:06:09;;;;;;;6.77;1.33;;;;;;;;;;5105734;28;20537;-71
2023/03/30 15:11:35;;;;;;;7.77;2.00;;;;;;;;;;5109108;28;20435;-69
2023/03/30 15:14:08;;;;;;;12.53;2.83;;;;;;;;;;5106908;28;20465;-70
2023/03/30 15:16:37;;;;;;;6.73;1.53;;;;;;;;;;5089103;28;20915;-71
2023/03/30 15:19:07;;;;;;;11.47;2.10;;;;;;;;;;5097934;28;20467;-72
2023/03/30 15:21:46;;;;;;;3.57;1.00;;;;;;;;;;5109054;28;20817;-72
2023/03/30 15:24:16;;;;;;;5.00;1.70;;;;;;;;;;5109589;28;20553;-71
2023/03/30 15:26:47;;;;;;;7.47;1.90;;;;;;;;;;5107156;28;20838;-71
2023/03/30 15:29:27;;;;;;;3.10;1.83;;;;;;;;;;5105395;28;20855;-71
2023/03/30 15:32:10;;;;;;;4.60;1.80;;;;;;;;;;5105884;28;20454;-72
2023/03/30 15:34:39;;;;;;;10.03;2.67;;;;;;;;;;5106006;28;20463;-71
2023/03/30 15:37:20;;;;;;;4.63;1.53;;;;;;;;;;5108041;28;20652;-71